sensor_id;sensor_type;location;lat;lon;timestamp;pressure;altitude;pressure_sealevel;temperature;humidity
51031;BME280;37058;41.442;23.240;2022-11-02T00:00:29;101207.81;;;10.08;75.92
51031;BME280;37058;41.442;23.240;2022-11-02T00:02:56;101213.41;;;9.95;75.30
51031;BME280;37058;41.442;23.240;2022-11-02T00:05:22;101209.81;;;9.83;74.99
51031;BME280;37058;41.442;23.240;2022-11-02T00:07:52;101209.13;;;9.69;75.26
51031;BME280;37058;41.442;23.240;2022-11-02T00:10:19;101213.28;;;9.71;75.70
51031;BME280;37058;41.442;23.240;2022-11-02T00:12:46;101217.09;;;9.70;76.17
51031;BME280;37058;41.442;23.240;2022-11-02T00:15:12;101209.13;;;9.69;76.07
51031;BME280;37058;41.442;23.240;2022-11-02T00:17:41;101213.28;;;9.71;76.28
51031;BME280;37058;41.442;23.240;2022-11-02T00:20:09;101204.50;;;9.69;76.70
51031;BME280;37058;41.442;23.240;2022-11-02T00:22:37;101209.50;;;9.72;76.82
51031;BME280;37058;41.442;23.240;2022-11-02T00:25:06;101205.25;;;9.76;77.32
51031;BME280;37058;41.442;23.240;2022-11-02T00:27:33;101218.28;;;9.74;77.66
51031;BME280;37058;41.442;23.240;2022-11-02T00:30:00;101201.09;;;9.74;77.53
51031;BME280;37058;41.442;23.240;2022-11-02T00:32:26;101206.38;;;9.69;77.54
51031;BME280;37058;41.442;23.240;2022-11-02T00:34:52;101216.69;;;9.67;77.26
51031;BME280;37058;41.442;23.240;2022-11-02T00:37:18;101211.47;;;9.65;77.53
51031;BME280;37058;41.442;23.240;2022-11-02T00:39:44;101203.16;;;9.60;76.95
51031;BME280;37058;41.442;23.240;2022-11-02T00:42:10;101206.34;;;9.57;77.95
51031;BME280;37058;41.442;23.240;2022-11-02T00:44:35;101205.06;;;9.60;78.12
51031;BME280;37058;41.442;23.240;2022-11-02T00:47:01;101203.75;;;9.62;79.04
51031;BME280;37058;41.442;23.240;2022-11-02T00:49:27;101204.13;;;9.66;79.29
51031;BME280;37058;41.442;23.240;2022-11-02T00:51:53;101201.19;;;9.67;78.76
51031;BME280;37058;41.442;23.240;2022-11-02T00:54:19;101199.50;;;9.66;78.82
51031;BME280;37058;41.442;23.240;2022-11-02T00:56:45;101203.50;;;9.64;78.08
51031;BME280;37058;41.442;23.240;2022-11-02T00:59:11;101201.03;;;9.62;77.98
51031;BME280;37058;41.442;23.240;2022-11-02T01:01:36;101191.41;;;9.60;77.72
51031;BME280;37058;41.442;23.240;2022-11-02T01:04:02;101193.81;;;9.49;76.37
51031;BME280;37058;41.442;23.240;2022-11-02T01:06:28;101193.91;;;9.43;75.30
51031;BME280;37058;41.442;23.240;2022-11-02T01:08:54;101186.00;;;9.35;74.92
51031;BME280;37058;41.442;23.240;2022-11-02T01:11:23;101183.56;;;9.26;74.03
51031;BME280;37058;41.442;23.240;2022-11-02T01:13:52;101181.91;;;9.25;74.30
51031;BME280;37058;41.442;23.240;2022-11-02T01:16:19;101183.19;;;9.23;74.46
51031;BME280;37058;41.442;23.240;2022-11-02T01:18:46;101179.22;;;9.19;74.85
51031;BME280;37058;41.442;23.240;2022-11-02T01:21:11;101191.88;;;9.13;75.49
51031;BME280;37058;41.442;23.240;2022-11-02T01:23:37;101193.66;;;9.01;77.09
51031;BME280;37058;41.442;23.240;2022-11-02T01:26:05;101186.22;;;8.89;78.13
51031;BME280;37058;41.442;23.240;2022-11-02T01:28:32;101188.13;;;8.89;78.70
51031;BME280;37058;41.442;23.240;2022-11-02T01:30:58;101185.00;;;8.85;78.92
51031;BME280;37058;41.442;23.240;2022-11-02T01:33:26;101186.09;;;8.78;79.36
51031;BME280;37058;41.442;23.240;2022-11-02T01:35:52;101188.91;;;8.71;80.95
51031;BME280;37058;41.442;23.240;2022-11-02T01:38:19;101187.50;;;8.62;81.29
51031;BME280;37058;41.442;23.240;2022-11-02T01:40:45;101180.59;;;8.59;81.47
51031;BME280;37058;41.442;23.240;2022-11-02T01:43:19;101182.50;;;8.59;81.65
51031;BME280;37058;41.442;23.240;2022-11-02T01:45:45;101182.66;;;8.64;82.42
51031;BME280;37058;41.442;23.240;2022-11-02T01:48:12;101187.22;;;8.70;82.66
51031;BME280;37058;41.442;23.240;2022-11-02T01:50:38;101187.66;;;8.67;83.20
51031;BME280;37058;41.442;23.240;2022-11-02T01:53:04;101184.72;;;8.68;82.77
51031;BME280;37058;41.442;23.240;2022-11-02T01:55:31;101189.75;;;8.65;83.06
51031;BME280;37058;41.442;23.240;2022-11-02T01:58:03;101195.03;;;8.60;82.89
51031;BME280;37058;41.442;23.240;2022-11-02T02:00:30;101187.94;;;8.59;82.18
51031;BME280;37058;41.442;23.240;2022-11-02T02:03:13;101190.03;;;8.57;81.45
51031;BME280;37058;41.442;23.240;2022-11-02T02:05:53;101194.03;;;8.54;82.11
51031;BME280;37058;41.442;23.240;2022-11-02T02:08:23;101192.81;;;8.50;83.33
51031;BME280;37058;41.442;23.240;2022-11-02T02:10:49;101192.16;;;8.55;83.67
51031;BME280;37058;41.442;23.240;2022-11-02T02:13:16;101196.31;;;8.57;83.34
51031;BME280;37058;41.442;23.240;2022-11-02T02:18:44;101193.31;;;8.65;84.21
51031;BME280;37058;41.442;23.240;2022-11-02T02:21:41;101188.34;;;8.56;81.31
51031;BME280;37058;41.442;23.240;2022-11-02T02:24:57;101192.13;;;8.61;82.23
51031;BME280;37058;41.442;23.240;2022-11-02T02:30:53;101183.94;;;8.61;80.15
51031;BME280;37058;41.442;23.240;2022-11-02T02:37:04;101189.59;;;8.60;77.82
51031;BME280;37058;41.442;23.240;2022-11-02T02:40:04;101188.91;;;8.39;76.46
51031;BME280;37058;41.442;23.240;2022-11-02T02:42:53;101191.09;;;8.17;77.42
51031;BME280;37058;41.442;23.240;2022-11-02T02:45:57;101194.91;;;8.10;77.49
51031;BME280;37058;41.442;23.240;2022-11-02T02:48:26;101193.69;;;8.06;78.56
51031;BME280;37058;41.442;23.240;2022-11-02T02:51:10;101198.25;;;8.12;78.94
51031;BME280;37058;41.442;23.240;2022-11-02T02:53:42;101192.34;;;8.15;79.15
51031;BME280;37058;41.442;23.240;2022-11-02T02:56:10;101187.34;;;8.12;79.07
51031;BME280;37058;41.442;23.240;2022-11-02T02:58:48;101193.88;;;8.11;80.31
51031;BME280;37058;41.442;23.240;2022-11-02T03:01:16;101177.09;;;8.14;79.99
51031;BME280;37058;41.442;23.240;2022-11-02T03:03:43;101190.88;;;8.19;78.89
51031;BME280;37058;41.442;23.240;2022-11-02T03:06:13;101186.50;;;8.18;79.11
51031;BME280;37058;41.442;23.240;2022-11-02T03:08:56;101183.19;;;8.09;77.05
51031;BME280;37058;41.442;23.240;2022-11-02T03:11:26;101182.63;;;8.00;75.83
51031;BME280;37058;41.442;23.240;2022-11-02T03:17:05;101193.91;;;7.97;75.92
51031;BME280;37058;41.442;23.240;2022-11-02T03:20:01;101196.22;;;8.00;76.73
51031;BME280;37058;41.442;23.240;2022-11-02T03:25:18;101184.91;;;7.97;79.76
51031;BME280;37058;41.442;23.240;2022-11-02T03:30:29;101192.06;;;7.91;81.33
51031;BME280;37058;41.442;23.240;2022-11-02T03:34:15;101190.41;;;7.90;82.29
51031;BME280;37058;41.442;23.240;2022-11-02T03:36:18;101194.59;;;7.86;83.52
51031;BME280;37058;41.442;23.240;2022-11-02T03:38:55;101191.69;;;7.81;84.74
51031;BME280;37058;41.442;23.240;2022-11-02T03:41:23;101192.94;;;7.78;85.27
51031;BME280;37058;41.442;23.240;2022-11-02T03:43:58;101190.94;;;7.60;79.41
51031;BME280;37058;41.442;23.240;2022-11-02T03:46:27;101192.44;;;7.43;78.19
51031;BME280;37058;41.442;23.240;2022-11-02T03:48:55;101195.16;;;7.36;78.27
51031;BME280;37058;41.442;23.240;2022-11-02T03:51:23;101187.47;;;7.27;78.02
51031;BME280;37058;41.442;23.240;2022-11-02T03:54:04;101194.78;;;7.13;78.83
51031;BME280;37058;41.442;23.240;2022-11-02T03:56:53;101199.19;;;7.07;79.16
51031;BME280;37058;41.442;23.240;2022-11-02T03:59:21;101191.66;;;7.09;79.31
51031;BME280;37058;41.442;23.240;2022-11-02T04:01:49;101195.00;;;7.11;79.47
51031;BME280;37058;41.442;23.240;2022-11-02T04:04:16;101200.41;;;7.11;80.19
51031;BME280;37058;41.442;23.240;2022-11-02T04:06:44;101197.72;;;7.05;80.99
51031;BME280;37058;41.442;23.240;2022-11-02T04:09:12;101195.22;;;7.03;82.66
51031;BME280;37058;41.442;23.240;2022-11-02T04:11:38;101193.56;;;7.02;82.96
51031;BME280;37058;41.442;23.240;2022-11-02T04:14:22;101196.69;;;6.99;84.17
51031;BME280;37058;41.442;23.240;2022-11-02T04:17:06;101200.03;;;7.08;82.69
51031;BME280;37058;41.442;23.240;2022-11-02T04:19:52;101213.16;;;7.11;80.86
51031;BME280;37058;41.442;23.240;2022-11-02T04:22:18;101200.84;;;7.15;80.44
51031;BME280;37058;41.442;23.240;2022-11-02T04:25:03;101199.78;;;7.23;81.20
51031;BME280;37058;41.442;23.240;2022-11-02T04:27:52;101205.63;;;7.26;80.79
51031;BME280;37058;41.442;23.240;2022-11-02T04:30:20;101210.44;;;7.31;80.70
51031;BME280;37058;41.442;23.240;2022-11-02T04:32:49;101206.06;;;7.30;79.92
51031;BME280;37058;41.442;23.240;2022-11-02T04:35:35;101205.44;;;7.28;78.99
51031;BME280;37058;41.442;23.240;2022-11-02T04:38:02;101204.38;;;7.29;78.45
51031;BME280;37058;41.442;23.240;2022-11-02T04:40:46;101202.31;;;7.24;78.49
51031;BME280;37058;41.442;23.240;2022-11-02T04:43:12;101208.56;;;7.25;78.96
51031;BME280;37058;41.442;23.240;2022-11-02T04:45:38;101206.69;;;7.25;79.66
51031;BME280;37058;41.442;23.240;2022-11-02T04:48:08;101201.88;;;7.27;79.70
51031;BME280;37058;41.442;23.240;2022-11-02T04:50:35;101202.09;;;7.26;78.31
51031;BME280;37058;41.442;23.240;2022-11-02T04:53:03;101213.59;;;7.08;76.52
51031;BME280;37058;41.442;23.240;2022-11-02T04:55:30;101204.63;;;7.01;76.77
51031;BME280;37058;41.442;23.240;2022-11-02T04:57:56;101209.41;;;7.05;76.60
51031;BME280;37058;41.442;23.240;2022-11-02T05:00:22;101206.50;;;6.93;75.59
51031;BME280;37058;41.442;23.240;2022-11-02T05:02:49;101210.91;;;6.94;75.77
51031;BME280;37058;41.442;23.240;2022-11-02T05:05:16;101206.50;;;6.87;75.56
51031;BME280;37058;41.442;23.240;2022-11-02T05:07:43;101211.75;;;6.82;75.97
51031;BME280;37058;41.442;23.240;2022-11-02T05:10:09;101219.06;;;6.81;76.77
51031;BME280;37058;41.442;23.240;2022-11-02T05:12:35;101208.41;;;6.86;76.71
51031;BME280;37058;41.442;23.240;2022-11-02T05:15:01;101214.44;;;6.88;76.90
51031;BME280;37058;41.442;23.240;2022-11-02T05:17:28;101215.50;;;6.94;76.76
51031;BME280;37058;41.442;23.240;2022-11-02T05:19:54;101211.53;;;6.97;77.26
51031;BME280;37058;41.442;23.240;2022-11-02T05:22:20;101213.81;;;7.00;77.22
51031;BME280;37058;41.442;23.240;2022-11-02T05:24:46;101220.09;;;7.07;77.02
51031;BME280;37058;41.442;23.240;2022-11-02T05:27:12;101220.50;;;6.97;75.99
51031;BME280;37058;41.442;23.240;2022-11-02T05:29:38;101227.38;;;6.93;75.90
51031;BME280;37058;41.442;23.240;2022-11-02T05:32:04;101235.97;;;6.90;76.10
51031;BME280;37058;41.442;23.240;2022-11-02T05:34:30;101233.44;;;6.88;76.65
51031;BME280;37058;41.442;23.240;2022-11-02T05:36:56;101228.22;;;7.00;76.62
51031;BME280;37058;41.442;23.240;2022-11-02T05:39:22;101232.41;;;7.09;76.58
51031;BME280;37058;41.442;23.240;2022-11-02T05:41:48;101231.38;;;7.17;76.73
51031;BME280;37058;41.442;23.240;2022-11-02T05:44:13;101231.53;;;7.29;76.33
51031;BME280;37058;41.442;23.240;2022-11-02T05:46:42;101233.44;;;7.35;76.55
51031;BME280;37058;41.442;23.240;2022-11-02T05:49:07;101240.72;;;7.41;75.65
51031;BME280;37058;41.442;23.240;2022-11-02T05:51:33;101251.56;;;7.54;75.31
51031;BME280;37058;41.442;23.240;2022-11-02T05:53:59;101245.88;;;7.76;74.76
51031;BME280;37058;41.442;23.240;2022-11-02T05:56:25;101248.56;;;7.89;74.51
51031;BME280;37058;41.442;23.240;2022-11-02T05:58:54;101247.16;;;8.25;73.25
51031;BME280;37058;41.442;23.240;2022-11-02T06:01:19;101250.78;;;9.58;69.18
51031;BME280;37058;41.442;23.240;2022-11-02T06:03:46;101248.41;;;11.07;63.84
51031;BME280;37058;41.442;23.240;2022-11-02T06:06:11;101255.28;;;11.92;60.76
51031;BME280;37058;41.442;23.240;2022-11-02T06:08:38;101255.69;;;12.53;58.52
51031;BME280;37058;41.442;23.240;2022-11-02T06:11:10;101258.44;;;12.82;57.67
51031;BME280;37058;41.442;23.240;2022-11-02T06:13:37;101253.06;;;13.37;56.92
51031;BME280;37058;41.442;23.240;2022-11-02T06:16:06;101250.59;;;14.68;53.22
51031;BME280;37058;41.442;23.240;2022-11-02T06:18:34;101254.69;;;15.67;50.27
51031;BME280;37058;41.442;23.240;2022-11-02T06:21:00;101250.66;;;15.75;50.04
51031;BME280;37058;41.442;23.240;2022-11-02T06:23:27;101259.50;;;15.82;50.32
51031;BME280;37058;41.442;23.240;2022-11-02T06:25:56;101254.53;;;15.79;50.46
51031;BME280;37058;41.442;23.240;2022-11-02T06:28:23;101257.25;;;16.32;50.13
51031;BME280;37058;41.442;23.240;2022-11-02T06:30:49;101256.28;;;16.79;49.21
51031;BME280;37058;41.442;23.240;2022-11-02T06:33:16;101259.75;;;16.38;50.14
51031;BME280;37058;41.442;23.240;2022-11-02T06:35:47;101258.38;;;15.78;52.11
51031;BME280;37058;41.442;23.240;2022-11-02T06:38:14;101255.06;;;16.39;51.34
51031;BME280;37058;41.442;23.240;2022-11-02T06:40:40;101256.28;;;17.35;49.04
51031;BME280;37058;41.442;23.240;2022-11-02T06:43:06;101262.56;;;17.82;48.18
51031;BME280;37058;41.442;23.240;2022-11-02T06:45:32;101263.41;;;17.67;48.74
51031;BME280;37058;41.442;23.240;2022-11-02T06:47:58;101257.34;;;17.80;49.22
51031;BME280;37058;41.442;23.240;2022-11-02T06:50:24;101246.53;;;17.89;49.17
51031;BME280;37058;41.442;23.240;2022-11-02T06:52:50;101250.84;;;18.10;49.15
51031;BME280;37058;41.442;23.240;2022-11-02T06:55:17;101254.50;;;18.06;49.22
51031;BME280;37058;41.442;23.240;2022-11-02T06:57:44;101255.50;;;18.20;49.80
51031;BME280;37058;41.442;23.240;2022-11-02T07:00:13;101245.31;;;18.21;49.74
51031;BME280;37058;41.442;23.240;2022-11-02T07:02:43;101245.19;;;18.41;49.65
51031;BME280;37058;41.442;23.240;2022-11-02T07:05:10;101249.56;;;18.52;49.04
51031;BME280;37058;41.442;23.240;2022-11-02T07:07:36;101245.59;;;18.69;48.88
51031;BME280;37058;41.442;23.240;2022-11-02T07:10:02;101242.16;;;18.87;48.56
51031;BME280;37058;41.442;23.240;2022-11-02T07:12:31;101249.63;;;19.21;48.23
51031;BME280;37058;41.442;23.240;2022-11-02T07:14:57;101241.16;;;19.65;47.41
51031;BME280;37058;41.442;23.240;2022-11-02T07:17:23;101246.34;;;20.20;45.96
51031;BME280;37058;41.442;23.240;2022-11-02T07:19:49;101242.41;;;21.02;44.05
51031;BME280;37058;41.442;23.240;2022-11-02T07:22:15;101238.59;;;23.14;39.99
51031;BME280;37058;41.442;23.240;2022-11-02T07:24:41;101236.03;;;25.24;35.75
51031;BME280;37058;41.442;23.240;2022-11-02T07:27:06;101230.72;;;26.89;33.14
51031;BME280;37058;41.442;23.240;2022-11-02T07:29:32;101230.72;;;28.41;30.65
51031;BME280;37058;41.442;23.240;2022-11-02T07:31:58;101225.03;;;28.94;29.51
51031;BME280;37058;41.442;23.240;2022-11-02T07:34:24;101210.34;;;25.87;34.02
51031;BME280;37058;41.442;23.240;2022-11-02T07:36:50;101209.88;;;24.16;37.03
51031;BME280;37058;41.442;23.240;2022-11-02T07:39:15;101214.59;;;22.82;40.08
51031;BME280;37058;41.442;23.240;2022-11-02T07:41:43;101208.69;;;21.97;42.13
51031;BME280;37058;41.442;23.240;2022-11-02T07:44:09;101208.22;;;21.34;43.78
51031;BME280;37058;41.442;23.240;2022-11-02T07:46:35;101202.13;;;20.86;45.25
51031;BME280;37058;41.442;23.240;2022-11-02T07:49:00;101205.88;;;20.38;46.46
51031;BME280;37058;41.442;23.240;2022-11-02T07:51:26;101203.19;;;20.14;47.16
51031;BME280;37058;41.442;23.240;2022-11-02T07:53:52;101193.97;;;19.76;48.57
51031;BME280;37058;41.442;23.240;2022-11-02T07:56:18;101191.91;;;19.33;49.80
51031;BME280;37058;41.442;23.240;2022-11-02T07:58:44;101185.22;;;19.10;50.94
51031;BME280;37058;41.442;23.240;2022-11-02T08:01:10;101190.13;;;18.89;51.67
51031;BME280;37058;41.442;23.240;2022-11-02T08:03:36;101184.56;;;18.50;52.74
51031;BME280;37058;41.442;23.240;2022-11-02T08:06:02;101185.47;;;18.35;53.25
51031;BME280;37058;41.442;23.240;2022-11-02T08:08:28;101184.22;;;18.17;54.17
51031;BME280;37058;41.442;23.240;2022-11-02T08:10:54;101175.97;;;18.07;54.71
51031;BME280;37058;41.442;23.240;2022-11-02T08:13:22;101180.44;;;17.97;55.23
51031;BME280;37058;41.442;23.240;2022-11-02T08:15:52;101169.44;;;17.77;55.61
51031;BME280;37058;41.442;23.240;2022-11-02T08:18:21;101164.81;;;17.57;56.37
51031;BME280;37058;41.442;23.240;2022-11-02T08:20:48;101159.91;;;17.44;56.80
51031;BME280;37058;41.442;23.240;2022-11-02T08:23:16;101155.78;;;17.36;57.40
51031;BME280;37058;41.442;23.240;2022-11-02T08:25:44;101146.09;;;17.39;57.79
51031;BME280;37058;41.442;23.240;2022-11-02T08:28:24;101147.47;;;17.46;57.65
51031;BME280;37058;41.442;23.240;2022-11-02T08:30:51;101147.97;;;17.59;57.35
51031;BME280;37058;41.442;23.240;2022-11-02T08:33:19;101149.31;;;17.71;57.14
51031;BME280;37058;41.442;23.240;2022-11-02T08:35:46;101144.56;;;17.77;57.10
51031;BME280;37058;41.442;23.240;2022-11-02T08:38:13;101138.75;;;17.89;56.97
51031;BME280;37058;41.442;23.240;2022-11-02T08:40:40;101134.53;;;18.02;56.50
51031;BME280;37058;41.442;23.240;2022-11-02T08:43:11;101124.25;;;18.12;56.08
51031;BME280;37058;41.442;23.240;2022-11-02T08:45:41;101132.75;;;18.26;55.59
51031;BME280;37058;41.442;23.240;2022-11-02T08:48:07;101124.38;;;18.36;55.43
51031;BME280;37058;41.442;23.240;2022-11-02T08:50:34;101117.41;;;18.44;54.82
51031;BME280;37058;41.442;23.240;2022-11-02T08:53:01;101118.22;;;18.45;54.59
51031;BME280;37058;41.442;23.240;2022-11-02T08:55:27;101121.22;;;18.48;54.52
51031;BME280;37058;41.442;23.240;2022-11-02T08:57:55;101114.59;;;18.49;54.46
51031;BME280;37058;41.442;23.240;2022-11-02T09:00:25;101112.03;;;18.58;54.63
51031;BME280;37058;41.442;23.240;2022-11-02T09:03:01;101113.94;;;18.62;54.14
51031;BME280;37058;41.442;23.240;2022-11-02T09:05:30;101104.81;;;18.62;54.42
51031;BME280;37058;41.442;23.240;2022-11-02T09:07:59;101108.66;;;18.66;54.37
51031;BME280;37058;41.442;23.240;2022-11-02T09:10:31;101098.69;;;18.65;54.15
51031;BME280;37058;41.442;23.240;2022-11-02T09:13:03;101092.06;;;18.66;54.09
51031;BME280;37058;41.442;23.240;2022-11-02T09:15:29;101091.75;;;18.68;54.17
51031;BME280;37058;41.442;23.240;2022-11-02T09:17:55;101089.25;;;18.71;53.88
51031;BME280;37058;41.442;23.240;2022-11-02T09:20:21;101085.06;;;18.79;53.66
51031;BME280;37058;41.442;23.240;2022-11-02T09:22:48;101088.03;;;18.82;53.63
51031;BME280;37058;41.442;23.240;2022-11-02T09:25:15;101076.66;;;18.89;53.25
51031;BME280;37058;41.442;23.240;2022-11-02T09:27:41;101075.75;;;18.94;53.20
51031;BME280;37058;41.442;23.240;2022-11-02T09:30:08;101063.50;;;19.00;53.08
51031;BME280;37058;41.442;23.240;2022-11-02T09:32:35;101066.75;;;19.07;52.76
51031;BME280;37058;41.442;23.240;2022-11-02T09:35:08;101061.44;;;19.11;52.83
51031;BME280;37058;41.442;23.240;2022-11-02T09:37:35;101056.72;;;19.11;52.69
51031;BME280;37058;41.442;23.240;2022-11-02T09:40:02;101055.50;;;19.22;52.45
51031;BME280;37058;41.442;23.240;2022-11-02T09:45:23;101050.06;;;19.36;52.39
51031;BME280;37058;41.442;23.240;2022-11-02T09:48:09;101032.56;;;19.41;52.07
51031;BME280;37058;41.442;23.240;2022-11-02T09:51:09;101033.56;;;19.50;51.89
51031;BME280;37058;41.442;23.240;2022-11-02T09:56:12;101024.47;;;19.68;50.94
51031;BME280;37058;41.442;23.240;2022-11-02T09:58:40;101011.06;;;19.76;50.91
51031;BME280;37058;41.442;23.240;2022-11-02T10:01:22;101014.50;;;19.86;50.63
51031;BME280;37058;41.442;23.240;2022-11-02T10:06:35;101006.75;;;20.02;50.05
51031;BME280;37058;41.442;23.240;2022-11-02T10:09:12;101009.22;;;20.04;49.85
51031;BME280;37058;41.442;23.240;2022-11-02T10:12:14;100996.72;;;20.06;49.16
51031;BME280;37058;41.442;23.240;2022-11-02T10:15:16;100985.00;;;20.09;49.23
51031;BME280;37058;41.442;23.240;2022-11-02T10:17:46;100988.13;;;20.22;49.11
51031;BME280;37058;41.442;23.240;2022-11-02T10:20:26;100981.34;;;20.28;48.98
51031;BME280;37058;41.442;23.240;2022-11-02T10:22:56;100973.56;;;20.30;48.84
51031;BME280;37058;41.442;23.240;2022-11-02T10:25:25;100975.22;;;20.31;48.75
51031;BME280;37058;41.442;23.240;2022-11-02T10:27:59;100970.19;;;20.33;48.85
51031;BME280;37058;41.442;23.240;2022-11-02T10:30:29;100968.75;;;20.35;48.57
51031;BME280;37058;41.442;23.240;2022-11-02T10:32:56;100956.53;;;20.50;48.38
51031;BME280;37058;41.442;23.240;2022-11-02T10:38:42;100948.56;;;20.63;48.20
51031;BME280;37058;41.442;23.240;2022-11-02T10:44:39;100933.25;;;20.65;47.91
51031;BME280;37058;41.442;23.240;2022-11-02T10:47:19;100927.94;;;20.69;47.61
51031;BME280;37058;41.442;23.240;2022-11-02T10:52:35;100929.06;;;20.82;47.63
51031;BME280;37058;41.442;23.240;2022-11-02T10:55:35;100919.06;;;20.94;47.15
51031;BME280;37058;41.442;23.240;2022-11-02T10:58:08;100910.63;;;20.99;47.23
51031;BME280;37058;41.442;23.240;2022-11-02T11:00:40;100894.38;;;21.07;47.26
51031;BME280;37058;41.442;23.240;2022-11-02T11:03:13;100901.34;;;21.18;46.97
51031;BME280;37058;41.442;23.240;2022-11-02T11:05:59;100894.50;;;21.24;47.40
51031;BME280;37058;41.442;23.240;2022-11-02T11:08:39;100896.06;;;21.30;47.17
51031;BME280;37058;41.442;23.240;2022-11-02T11:16:51;100884.53;;;21.59;44.97
51031;BME280;37058;41.442;23.240;2022-11-02T11:19:35;100874.75;;;21.62;45.31
51031;BME280;37058;41.442;23.240;2022-11-02T11:22:37;100866.63;;;21.66;45.27
51031;BME280;37058;41.442;23.240;2022-11-02T11:27:52;100861.19;;;21.83;44.25
51031;BME280;37058;41.442;23.240;2022-11-02T11:30:31;100858.44;;;21.92;43.61
51031;BME280;37058;41.442;23.240;2022-11-02T11:32:59;100858.44;;;21.92;43.81
51031;BME280;37058;41.442;23.240;2022-11-02T11:35:36;100847.63;;;21.90;44.06
51031;BME280;37058;41.442;23.240;2022-11-02T11:38:14;100838.16;;;21.91;44.23
51031;BME280;37058;41.442;23.240;2022-11-02T11:40:47;100839.19;;;21.95;44.02
51031;BME280;37058;41.442;23.240;2022-11-02T11:43:21;100836.25;;;22.00;43.84
51031;BME280;37058;41.442;23.240;2022-11-02T11:46:05;100825.19;;;22.18;43.19
51031;BME280;37058;41.442;23.240;2022-11-02T11:48:55;100821.28;;;22.19;43.24
51031;BME280;37058;41.442;23.240;2022-11-02T11:51:36;100814.91;;;22.18;43.51
51031;BME280;37058;41.442;23.240;2022-11-02T11:56:59;100809.66;;;22.17;43.09
51031;BME280;37058;41.442;23.240;2022-11-02T11:59:47;100809.34;;;22.18;43.29
51031;BME280;37058;41.442;23.240;2022-11-02T12:02:26;100797.09;;;22.19;43.04
51031;BME280;37058;41.442;23.240;2022-11-02T12:05:12;100793.66;;;22.22;43.27
51031;BME280;37058;41.442;23.240;2022-11-02T12:16:26;100779.13;;;22.34;42.55
51031;BME280;37058;41.442;23.240;2022-11-02T12:37:17;100738.75;;;22.71;41.79
51031;BME280;37058;41.442;23.240;2022-11-02T12:43:47;100741.38;;;22.77;42.16
51031;BME280;37058;41.442;23.240;2022-11-02T12:46:45;100733.34;;;22.92;41.73
51031;BME280;37058;41.442;23.240;2022-11-02T12:54:58;100724.50;;;23.17;40.82
51031;BME280;37058;41.442;23.240;2022-11-02T12:57:34;100726.63;;;23.28;40.49
51031;BME280;37058;41.442;23.240;2022-11-02T13:00:07;100717.94;;;23.30;40.65
51031;BME280;37058;41.442;23.240;2022-11-02T13:02:52;100718.09;;;23.33;40.68
51031;BME280;37058;41.442;23.240;2022-11-02T13:05:31;100703.97;;;23.39;40.59
51031;BME280;37058;41.442;23.240;2022-11-02T13:08:13;100708.88;;;23.42;40.72
51031;BME280;37058;41.442;23.240;2022-11-02T13:10:46;100707.25;;;23.41;40.80
51031;BME280;37058;41.442;23.240;2022-11-02T13:13:43;100702.84;;;23.40;40.72
51031;BME280;37058;41.442;23.240;2022-11-02T13:16:09;100705.28;;;23.41;40.66
51031;BME280;37058;41.442;23.240;2022-11-02T13:18:49;100704.78;;;23.48;40.63
51031;BME280;37058;41.442;23.240;2022-11-02T13:21:22;100695.25;;;23.49;40.82
51031;BME280;37058;41.442;23.240;2022-11-02T13:23:56;100691.97;;;23.47;40.81
51031;BME280;37058;41.442;23.240;2022-11-02T13:26:38;100691.16;;;23.46;41.05
51031;BME280;37058;41.442;23.240;2022-11-02T13:32:59;100689.03;;;23.43;40.56
51031;BME280;37058;41.442;23.240;2022-11-02T13:35:33;100684.28;;;23.44;40.55
51031;BME280;37058;41.442;23.240;2022-11-02T13:40:45;100689.22;;;23.38;40.31
51031;BME280;37058;41.442;23.240;2022-11-02T13:46:30;100686.25;;;23.43;40.16
51031;BME280;37058;41.442;23.240;2022-11-02T13:48:59;100680.34;;;23.45;40.21
51031;BME280;37058;41.442;23.240;2022-11-02T13:56:46;100675.28;;;23.29;39.91
51031;BME280;37058;41.442;23.240;2022-11-02T13:59:26;100671.06;;;23.23;40.09
51031;BME280;37058;41.442;23.240;2022-11-02T14:01:53;100676.31;;;23.16;40.62
51031;BME280;37058;41.442;23.240;2022-11-02T14:04:21;100671.91;;;23.06;40.67
51031;BME280;37058;41.442;23.240;2022-11-02T14:09:27;100667.19;;;22.89;41.06
51031;BME280;37058;41.442;23.240;2022-11-02T14:12:26;100664.38;;;22.81;42.12
51031;BME280;37058;41.442;23.240;2022-11-02T14:20:45;100666.69;;;22.53;43.67
51031;BME280;37058;41.442;23.240;2022-11-02T14:28:42;100665.69;;;22.22;44.35
51031;BME280;37058;41.442;23.240;2022-11-02T14:36:25;100658.91;;;21.97;45.35
51031;BME280;37058;41.442;23.240;2022-11-02T14:47:33;100662.63;;;21.75;44.19
51031;BME280;37058;41.442;23.240;2022-11-02T14:50:15;100664.69;;;21.70;44.06
51031;BME280;37058;41.442;23.240;2022-11-02T14:53:22;100663.72;;;21.66;44.80
51031;BME280;37058;41.442;23.240;2022-11-02T14:55:54;100667.78;;;21.59;46.33
51031;BME280;37058;41.442;23.240;2022-11-02T14:58:28;100664.66;;;21.52;47.08
51031;BME280;37058;41.442;23.240;2022-11-02T15:00:58;100661.66;;;21.40;47.36
51031;BME280;37058;41.442;23.240;2022-11-02T15:09:01;100666.41;;;21.17;47.49
51031;BME280;37058;41.442;23.240;2022-11-02T15:11:50;100668.31;;;21.08;48.14
51031;BME280;37058;41.442;23.240;2022-11-02T15:19:50;100686.00;;;20.89;47.64
51031;BME280;37058;41.442;23.240;2022-11-02T15:27:35;100683.19;;;20.67;48.29
51031;BME280;37058;41.442;23.240;2022-11-02T15:30:05;100685.59;;;20.60;48.18